Madison, Connecticut
Current Conditions -  °F | °C
As of 6:35 PM on Friday 31 Oct 2014 (Local Time) from KSNC Reporting Station
Light Rain Light Rain  
Wind Chill: 45°   Ceiling: 2300
Heat Index: 48°   Visibility: 5mi
Dew Point: 45°   Wind: 8mph
Humidity: 87%   Direction: 60°ENE
Pressure: 29.94"   Gusts: NA
Location:  41.28°N, 72.6°W
Report Text: KSNC 312235Z AUTO 06007KT 5SM -RA FEW001 OVC023 09/07 A2994 RMK AO2
Loading
Personal Weather Stations






























Interactive Weather Map
Tropical Storm Tracking
New forecast layout! Learn more

10-Day Weather Forecast

Advertisements
Track Severe Weather on mobile